Weather at Shenkursk Airfield

Public forecast

Using degrees Celsius for public forecast. Weather courtesy of forecast.io.

Closest aviation weather report (METAR) to Shenkursk Airfield

Closest report is Syktyvkar Airport, 226.9 nm (420.2 km) E.

2024/05/24 17:30 (retrieved 11 minutes ago)

UUYY 241730Z 25002MPS 9999 FEW046 21/07 Q1014 R36/61D NOSIG RMK QFE751/1002

Closest aviation forecast (TAF) to Shenkursk Airfield

Closest forecast is Syktyvkar Airport, 226.9 nm (420.2 km) E.

2024/05/24 15:21 (retrieved 2 hours ago)

TAF UUYY 241400Z 2415/2515 25004G12MPS 9999 BKN020 TEMPO 2415/2418 23006G14MPS TEMPO 2505/2512 6000 -TSRA FEW007 BKN016CB BECMG 2506/2508 30005G14MPS TEMPO 2512/2515 6000 -SHRA FEW007 BKN016CB